sensor_id;sensor_type;location;lat;lon;timestamp;P1;durP1;ratioP1;P2;durP2;ratioP2
54979;SDS011;44101;50.462;30.432;2022-09-03T00:00:27;21.70;;;7.07;;
54979;SDS011;44101;50.462;30.432;2022-09-03T00:03:05;17.90;;;5.85;;
54979;SDS011;44101;50.462;30.432;2022-09-03T00:08:52;21.25;;;6.22;;
54979;SDS011;44101;50.462;30.432;2022-09-03T00:14:15;14.48;;;6.15;;
54979;SDS011;44101;50.462;30.432;2022-09-03T00:17:10;16.67;;;5.63;;
54979;SDS011;44101;50.462;30.432;2022-09-03T00:19:45;17.65;;;6.25;;
54979;SDS011;44101;50.462;30.432;2022-09-03T00:22:23;16.77;;;6.10;;
54979;SDS011;44101;50.462;30.432;2022-09-03T00:24:54;15.93;;;5.75;;
54979;SDS011;44101;50.462;30.432;2022-09-03T00:27:24;23.67;;;6.50;;
54979;SDS011;44101;50.462;30.432;2022-09-03T00:30:00;22.92;;;7.20;;
54979;SDS011;44101;50.462;30.432;2022-09-03T00:32:32;23.00;;;7.05;;
54979;SDS011;44101;50.462;30.432;2022-09-03T00:35:04;13.35;;;5.60;;
54979;SDS011;44101;50.462;30.432;2022-09-03T00:37:38;15.20;;;5.88;;
54979;SDS011;44101;50.462;30.432;2022-09-03T00:40:06;14.27;;;5.65;;
54979;SDS011;44101;50.462;30.432;2022-09-03T00:43:00;12.98;;;5.53;;
54979;SDS011;44101;50.462;30.432;2022-09-03T00:48:40;12.43;;;5.65;;
54979;SDS011;44101;50.462;30.432;2022-09-03T00:57:13;15.05;;;5.57;;
54979;SDS011;44101;50.462;30.432;2022-09-03T00:59:58;10.20;;;5.32;;
54979;SDS011;44101;50.462;30.432;2022-09-03T01:11:20;11.02;;;5.13;;
54979;SDS011;44101;50.462;30.432;2022-09-03T01:13:57;10.68;;;5.22;;
54979;SDS011;44101;50.462;30.432;2022-09-03T01:16:38;17.13;;;5.68;;
54979;SDS011;44101;50.462;30.432;2022-09-03T01:24:43;12.77;;;5.38;;
54979;SDS011;44101;50.462;30.432;2022-09-03T01:27:38;14.00;;;5.38;;
54979;SDS011;44101;50.462;30.432;2022-09-03T01:30:17;14.57;;;5.85;;
54979;SDS011;44101;50.462;30.432;2022-09-03T01:46:07;15.60;;;4.82;;
54979;SDS011;44101;50.462;30.432;2022-09-03T01:48:42;11.18;;;4.68;;
54979;SDS011;44101;50.462;30.432;2022-09-03T02:02:36;12.05;;;4.75;;
54979;SDS011;44101;50.462;30.432;2022-09-03T02:05:13;11.00;;;4.78;;
54979;SDS011;44101;50.462;30.432;2022-09-03T02:10:12;12.70;;;4.50;;
54979;SDS011;44101;50.462;30.432;2022-09-03T02:12:40;10.98;;;4.40;;
54979;SDS011;44101;50.462;30.432;2022-09-03T02:15:11;10.98;;;4.68;;
54979;SDS011;44101;50.462;30.432;2022-09-03T02:17:40;10.40;;;4.50;;
54979;SDS011;44101;50.462;30.432;2022-09-03T02:20:09;10.48;;;4.45;;
54979;SDS011;44101;50.462;30.432;2022-09-03T02:22:37;15.15;;;4.47;;
54979;SDS011;44101;50.462;30.432;2022-09-03T02:25:05;8.70;;;4.53;;
54979;SDS011;44101;50.462;30.432;2022-09-03T02:27:31;13.00;;;4.43;;
54979;SDS011;44101;50.462;30.432;2022-09-03T02:29:57;15.55;;;5.43;;
54979;SDS011;44101;50.462;30.432;2022-09-03T02:32:24;18.33;;;5.30;;
54979;SDS011;44101;50.462;30.432;2022-09-03T02:34:50;14.63;;;4.40;;
54979;SDS011;44101;50.462;30.432;2022-09-03T02:37:16;10.45;;;4.80;;
54979;SDS011;44101;50.462;30.432;2022-09-03T02:39:44;9.35;;;4.60;;
54979;SDS011;44101;50.462;30.432;2022-09-03T02:42:10;12.68;;;4.85;;
54979;SDS011;44101;50.462;30.432;2022-09-03T02:44:43;14.63;;;5.60;;
54979;SDS011;44101;50.462;30.432;2022-09-03T02:47:16;18.05;;;5.00;;
54979;SDS011;44101;50.462;30.432;2022-09-03T02:49:46;11.95;;;4.95;;
54979;SDS011;44101;50.462;30.432;2022-09-03T02:52:12;12.07;;;5.07;;
54979;SDS011;44101;50.462;30.432;2022-09-03T02:54:38;14.60;;;5.20;;
54979;SDS011;44101;50.462;30.432;2022-09-03T02:57:05;8.48;;;4.43;;
54979;SDS011;44101;50.462;30.432;2022-09-03T02:59:31;17.00;;;5.88;;
54979;SDS011;44101;50.462;30.432;2022-09-03T03:01:57;14.98;;;4.90;;
54979;SDS011;44101;50.462;30.432;2022-09-03T03:04:24;12.23;;;5.72;;
54979;SDS011;44101;50.462;30.432;2022-09-03T03:06:50;12.15;;;5.95;;
54979;SDS011;44101;50.462;30.432;2022-09-03T03:09:16;12.93;;;4.97;;
54979;SDS011;44101;50.462;30.432;2022-09-03T03:11:42;18.08;;;5.35;;
54979;SDS011;44101;50.462;30.432;2022-09-03T03:14:08;14.45;;;5.30;;
54979;SDS011;44101;50.462;30.432;2022-09-03T03:16:34;18.70;;;5.80;;
54979;SDS011;44101;50.462;30.432;2022-09-03T03:19:01;18.00;;;6.05;;
54979;SDS011;44101;50.462;30.432;2022-09-03T03:21:26;11.30;;;5.68;;
54979;SDS011;44101;50.462;30.432;2022-09-03T03:23:53;18.27;;;6.05;;
54979;SDS011;44101;50.462;30.432;2022-09-03T03:26:19;11.68;;;5.60;;
54979;SDS011;44101;50.462;30.432;2022-09-03T03:28:46;14.85;;;6.40;;
54979;SDS011;44101;50.462;30.432;2022-09-03T03:31:14;14.05;;;6.28;;
54979;SDS011;44101;50.462;30.432;2022-09-03T03:33:41;19.80;;;6.20;;
54979;SDS011;44101;50.462;30.432;2022-09-03T03:36:08;14.30;;;5.70;;
54979;SDS011;44101;50.462;30.432;2022-09-03T03:38:36;12.13;;;6.05;;
54979;SDS011;44101;50.462;30.432;2022-09-03T03:41:09;17.15;;;6.25;;
54979;SDS011;44101;50.462;30.432;2022-09-03T03:43:36;11.73;;;5.43;;
54979;SDS011;44101;50.462;30.432;2022-09-03T03:46:01;12.65;;;5.80;;
54979;SDS011;44101;50.462;30.432;2022-09-03T03:48:27;16.80;;;5.70;;
54979;SDS011;44101;50.462;30.432;2022-09-03T03:50:53;17.20;;;6.15;;
54979;SDS011;44101;50.462;30.432;2022-09-03T03:53:19;12.05;;;5.65;;
54979;SDS011;44101;50.462;30.432;2022-09-03T03:55:54;12.82;;;5.72;;
54979;SDS011;44101;50.462;30.432;2022-09-03T03:58:21;14.13;;;6.32;;
54979;SDS011;44101;50.462;30.432;2022-09-03T04:00:48;12.77;;;5.45;;
54979;SDS011;44101;50.462;30.432;2022-09-03T04:03:15;11.40;;;5.40;;
54979;SDS011;44101;50.462;30.432;2022-09-03T04:05:40;19.17;;;5.63;;
54979;SDS011;44101;50.462;30.432;2022-09-03T04:08:06;13.10;;;5.80;;
54979;SDS011;44101;50.462;30.432;2022-09-03T04:10:32;13.40;;;5.82;;
54979;SDS011;44101;50.462;30.432;2022-09-03T04:12:57;11.15;;;5.45;;
54979;SDS011;44101;50.462;30.432;2022-09-03T04:15:23;14.15;;;5.20;;
54979;SDS011;44101;50.462;30.432;2022-09-03T04:17:49;10.50;;;5.03;;
54979;SDS011;44101;50.462;30.432;2022-09-03T04:20:14;15.65;;;5.30;;
54979;SDS011;44101;50.462;30.432;2022-09-03T04:22:40;13.40;;;5.72;;
54979;SDS011;44101;50.462;30.432;2022-09-03T04:25:06;16.63;;;4.85;;
54979;SDS011;44101;50.462;30.432;2022-09-03T04:27:32;9.80;;;5.22;;
54979;SDS011;44101;50.462;30.432;2022-09-03T04:29:58;10.80;;;4.63;;
54979;SDS011;44101;50.462;30.432;2022-09-03T04:32:23;13.65;;;4.85;;
54979;SDS011;44101;50.462;30.432;2022-09-03T04:35:08;13.45;;;4.90;;
54979;SDS011;44101;50.462;30.432;2022-09-03T04:37:34;13.25;;;5.13;;
54979;SDS011;44101;50.462;30.432;2022-09-03T04:39:59;12.60;;;4.80;;
54979;SDS011;44101;50.462;30.432;2022-09-03T04:42:26;9.57;;;4.47;;
54979;SDS011;44101;50.462;30.432;2022-09-03T04:44:52;12.70;;;5.57;;
54979;SDS011;44101;50.462;30.432;2022-09-03T04:47:17;23.23;;;6.03;;
54979;SDS011;44101;50.462;30.432;2022-09-03T04:49:43;23.83;;;6.28;;
54979;SDS011;44101;50.462;30.432;2022-09-03T04:54:56;18.00;;;5.20;;
54979;SDS011;44101;50.462;30.432;2022-09-03T04:57:22;12.25;;;4.90;;
54979;SDS011;44101;50.462;30.432;2022-09-03T04:59:48;14.23;;;4.85;;
54979;SDS011;44101;50.462;30.432;2022-09-03T05:02:13;21.08;;;5.85;;
54979;SDS011;44101;50.462;30.432;2022-09-03T05:04:40;48.42;;;7.30;;
54979;SDS011;44101;50.462;30.432;2022-09-03T05:07:06;18.35;;;5.03;;
54979;SDS011;44101;50.462;30.432;2022-09-03T05:09:32;14.95;;;5.05;;
54979;SDS011;44101;50.462;30.432;2022-09-03T05:11:58;12.10;;;4.88;;
54979;SDS011;44101;50.462;30.432;2022-09-03T05:14:24;11.68;;;4.15;;
54979;SDS011;44101;50.462;30.432;2022-09-03T05:16:49;7.45;;;4.47;;
54979;SDS011;44101;50.462;30.432;2022-09-03T05:19:15;8.50;;;3.97;;
54979;SDS011;44101;50.462;30.432;2022-09-03T05:21:40;14.63;;;4.50;;
54979;SDS011;44101;50.462;30.432;2022-09-03T05:24:07;12.23;;;4.15;;
54979;SDS011;44101;50.462;30.432;2022-09-03T05:26:35;12.30;;;3.83;;
54979;SDS011;44101;50.462;30.432;2022-09-03T05:29:02;10.13;;;3.78;;
54979;SDS011;44101;50.462;30.432;2022-09-03T05:31:31;10.40;;;3.75;;
54979;SDS011;44101;50.462;30.432;2022-09-03T05:33:58;7.15;;;3.78;;
54979;SDS011;44101;50.462;30.432;2022-09-03T05:36:27;7.80;;;4.03;;
54979;SDS011;44101;50.462;30.432;2022-09-03T05:38:54;12.85;;;4.40;;
54979;SDS011;44101;50.462;30.432;2022-09-03T05:41:21;9.40;;;4.40;;
54979;SDS011;44101;50.462;30.432;2022-09-03T05:43:48;9.48;;;4.13;;
54979;SDS011;44101;50.462;30.432;2022-09-03T05:46:20;14.75;;;4.03;;
54979;SDS011;44101;50.462;30.432;2022-09-03T05:48:54;6.85;;;3.97;;
54979;SDS011;44101;50.462;30.432;2022-09-03T05:51:20;7.90;;;3.55;;
54979;SDS011;44101;50.462;30.432;2022-09-03T05:53:46;11.13;;;3.55;;
54979;SDS011;44101;50.462;30.432;2022-09-03T05:56:14;7.47;;;4.03;;
54979;SDS011;44101;50.462;30.432;2022-09-03T05:58:47;6.05;;;3.63;;
54979;SDS011;44101;50.462;30.432;2022-09-03T06:01:19;9.70;;;3.75;;
54979;SDS011;44101;50.462;30.432;2022-09-03T06:03:46;7.93;;;3.97;;
54979;SDS011;44101;50.462;30.432;2022-09-03T06:06:17;5.63;;;3.60;;
54979;SDS011;44101;50.462;30.432;2022-09-03T06:08:42;12.15;;;3.58;;
54979;SDS011;44101;50.462;30.432;2022-09-03T06:11:09;10.23;;;4.05;;
54979;SDS011;44101;50.462;30.432;2022-09-03T06:13:35;5.90;;;3.63;;
54979;SDS011;44101;50.462;30.432;2022-09-03T06:16:02;10.05;;;3.30;;
54979;SDS011;44101;50.462;30.432;2022-09-03T06:18:30;10.25;;;4.38;;
54979;SDS011;44101;50.462;30.432;2022-09-03T06:20:57;10.95;;;4.90;;
54979;SDS011;44101;50.462;30.432;2022-09-03T06:23:25;13.57;;;5.60;;
54979;SDS011;44101;50.462;30.432;2022-09-03T06:26:01;12.70;;;4.90;;
54979;SDS011;44101;50.462;30.432;2022-09-03T06:28:27;14.55;;;5.50;;
54979;SDS011;44101;50.462;30.432;2022-09-03T06:30:52;13.13;;;4.70;;
54979;SDS011;44101;50.462;30.432;2022-09-03T06:33:21;15.57;;;4.57;;
54979;SDS011;44101;50.462;30.432;2022-09-03T06:35:51;12.27;;;5.97;;
54979;SDS011;44101;50.462;30.432;2022-09-03T06:38:21;11.00;;;4.23;;
54979;SDS011;44101;50.462;30.432;2022-09-03T06:40:50;7.40;;;4.15;;
54979;SDS011;44101;50.462;30.432;2022-09-03T06:43:17;9.63;;;4.00;;
54979;SDS011;44101;50.462;30.432;2022-09-03T06:45:51;8.35;;;3.65;;
54979;SDS011;44101;50.462;30.432;2022-09-03T06:48:17;10.23;;;4.47;;
54979;SDS011;44101;50.462;30.432;2022-09-03T06:50:43;7.93;;;4.72;;
54979;SDS011;44101;50.462;30.432;2022-09-03T06:53:08;12.52;;;4.60;;
54979;SDS011;44101;50.462;30.432;2022-09-03T06:55:35;8.82;;;4.68;;
54979;SDS011;44101;50.462;30.432;2022-09-03T06:58:04;11.55;;;4.63;;
54979;SDS011;44101;50.462;30.432;2022-09-03T07:00:29;10.85;;;4.70;;
54979;SDS011;44101;50.462;30.432;2022-09-03T07:02:55;14.95;;;4.97;;
54979;SDS011;44101;50.462;30.432;2022-09-03T07:05:23;24.63;;;5.25;;
54979;SDS011;44101;50.462;30.432;2022-09-03T07:07:52;21.50;;;5.88;;
54979;SDS011;44101;50.462;30.432;2022-09-03T07:10:18;10.73;;;5.00;;
54979;SDS011;44101;50.462;30.432;2022-09-03T07:12:45;18.75;;;5.38;;
54979;SDS011;44101;50.462;30.432;2022-09-03T07:15:11;19.15;;;5.43;;
54979;SDS011;44101;50.462;30.432;2022-09-03T07:17:37;14.10;;;5.25;;
54979;SDS011;44101;50.462;30.432;2022-09-03T07:20:03;18.75;;;5.22;;
54979;SDS011;44101;50.462;30.432;2022-09-03T07:22:29;16.23;;;4.78;;
54979;SDS011;44101;50.462;30.432;2022-09-03T07:24:55;13.65;;;5.88;;
54979;SDS011;44101;50.462;30.432;2022-09-03T07:27:20;17.90;;;5.03;;
54979;SDS011;44101;50.462;30.432;2022-09-03T07:29:46;12.32;;;4.80;;
54979;SDS011;44101;50.462;30.432;2022-09-03T07:32:11;17.33;;;4.90;;
54979;SDS011;44101;50.462;30.432;2022-09-03T07:34:37;11.43;;;5.03;;
54979;SDS011;44101;50.462;30.432;2022-09-03T07:37:03;11.90;;;4.65;;
54979;SDS011;44101;50.462;30.432;2022-09-03T07:39:29;17.85;;;4.95;;
54979;SDS011;44101;50.462;30.432;2022-09-03T07:41:55;10.00;;;4.72;;
54979;SDS011;44101;50.462;30.432;2022-09-03T07:44:22;15.43;;;5.03;;
54979;SDS011;44101;50.462;30.432;2022-09-03T07:46:48;12.02;;;4.57;;
54979;SDS011;44101;50.462;30.432;2022-09-03T07:49:14;14.50;;;5.03;;
54979;SDS011;44101;50.462;30.432;2022-09-03T07:51:41;10.43;;;4.68;;
54979;SDS011;44101;50.462;30.432;2022-09-03T07:54:07;13.65;;;5.82;;
54979;SDS011;44101;50.462;30.432;2022-09-03T07:56:35;12.90;;;4.95;;
54979;SDS011;44101;50.462;30.432;2022-09-03T07:59:02;16.13;;;5.10;;
54979;SDS011;44101;50.462;30.432;2022-09-03T08:01:29;10.43;;;4.35;;
54979;SDS011;44101;50.462;30.432;2022-09-03T08:03:56;13.35;;;4.25;;
54979;SDS011;44101;50.462;30.432;2022-09-03T08:06:24;11.88;;;4.35;;
54979;SDS011;44101;50.462;30.432;2022-09-03T08:08:58;17.17;;;4.47;;
54979;SDS011;44101;50.462;30.432;2022-09-03T08:11:27;10.65;;;4.95;;
54979;SDS011;44101;50.462;30.432;2022-09-03T08:13:54;11.90;;;4.57;;
54979;SDS011;44101;50.462;30.432;2022-09-03T08:16:37;12.05;;;4.38;;
54979;SDS011;44101;50.462;30.432;2022-09-03T08:19:05;8.75;;;4.63;;
54979;SDS011;44101;50.462;30.432;2022-09-03T08:21:31;12.60;;;4.43;;
54979;SDS011;44101;50.462;30.432;2022-09-03T08:23:57;12.85;;;5.65;;
54979;SDS011;44101;50.462;30.432;2022-09-03T08:26:31;8.88;;;4.28;;
54979;SDS011;44101;50.462;30.432;2022-09-03T08:28:58;11.48;;;4.20;;
54979;SDS011;44101;50.462;30.432;2022-09-03T08:31:24;8.65;;;4.20;;
54979;SDS011;44101;50.462;30.432;2022-09-03T08:33:53;14.18;;;4.63;;
54979;SDS011;44101;50.462;30.432;2022-09-03T08:36:21;11.50;;;4.47;;
54979;SDS011;44101;50.462;30.432;2022-09-03T08:38:49;12.60;;;4.15;;
54979;SDS011;44101;50.462;30.432;2022-09-03T08:44:27;12.18;;;4.45;;
54979;SDS011;44101;50.462;30.432;2022-09-03T08:52:25;11.30;;;4.10;;
54979;SDS011;44101;50.462;30.432;2022-09-03T08:55:40;12.93;;;4.03;;
54979;SDS011;44101;50.462;30.432;2022-09-03T08:58:11;12.73;;;4.32;;
54979;SDS011;44101;50.462;30.432;2022-09-03T09:08:49;20.30;;;5.13;;
54979;SDS011;44101;50.462;30.432;2022-09-03T09:11:29;10.60;;;4.25;;
54979;SDS011;44101;50.462;30.432;2022-09-03T09:17:22;20.83;;;4.55;;
54979;SDS011;44101;50.462;30.432;2022-09-03T09:22:38;9.57;;;4.28;;
54979;SDS011;44101;50.462;30.432;2022-09-03T09:25:27;12.38;;;4.10;;
54979;SDS011;44101;50.462;30.432;2022-09-03T09:27:58;13.82;;;4.25;;
54979;SDS011;44101;50.462;30.432;2022-09-03T09:30:27;12.15;;;4.05;;
54979;SDS011;44101;50.462;30.432;2022-09-03T09:32:54;10.40;;;3.90;;
54979;SDS011;44101;50.462;30.432;2022-09-03T09:35:22;9.80;;;3.80;;
54979;SDS011;44101;50.462;30.432;2022-09-03T09:43:02;11.20;;;2.80;;
54979;SDS011;44101;50.462;30.432;2022-09-03T09:45:31;5.55;;;2.67;;
54979;SDS011;44101;50.462;30.432;2022-09-03T09:47:58;10.38;;;2.70;;
54979;SDS011;44101;50.462;30.432;2022-09-03T09:50:25;9.32;;;3.38;;
54979;SDS011;44101;50.462;30.432;2022-09-03T09:53:06;11.68;;;3.20;;
54979;SDS011;44101;50.462;30.432;2022-09-03T09:55:54;15.15;;;3.80;;
54979;SDS011;44101;50.462;30.432;2022-09-03T09:58:25;15.07;;;4.00;;
54979;SDS011;44101;50.462;30.432;2022-09-03T10:03:28;10.73;;;3.85;;
54979;SDS011;44101;50.462;30.432;2022-09-03T10:05:59;10.65;;;4.43;;
54979;SDS011;44101;50.462;30.432;2022-09-03T10:08:51;9.88;;;3.78;;
54979;SDS011;44101;50.462;30.432;2022-09-03T10:11:19;7.65;;;3.38;;
54979;SDS011;44101;50.462;30.432;2022-09-03T10:13:49;17.83;;;3.65;;
54979;SDS011;44101;50.462;30.432;2022-09-03T10:16:26;9.00;;;3.33;;
54979;SDS011;44101;50.462;30.432;2022-09-03T10:19:09;10.02;;;3.25;;
54979;SDS011;44101;50.462;30.432;2022-09-03T10:29:33;8.52;;;3.40;;
54979;SDS011;44101;50.462;30.432;2022-09-03T10:40:01;13.50;;;3.40;;
54979;SDS011;44101;50.462;30.432;2022-09-03T10:51:32;6.53;;;2.60;;
54979;SDS011;44101;50.462;30.432;2022-09-03T10:56:35;5.40;;;2.75;;
54979;SDS011;44101;50.462;30.432;2022-09-03T11:05:17;9.68;;;2.35;;
54979;SDS011;44101;50.462;30.432;2022-09-03T11:07:48;4.07;;;2.90;;
54979;SDS011;44101;50.462;30.432;2022-09-03T11:12:57;4.47;;;2.95;;
54979;SDS011;44101;50.462;30.432;2022-09-03T11:15:35;5.18;;;2.78;;
54979;SDS011;44101;50.462;30.432;2022-09-03T11:21:01;7.15;;;2.90;;
54979;SDS011;44101;50.462;30.432;2022-09-03T11:23:39;8.15;;;2.60;;
54979;SDS011;44101;50.462;30.432;2022-09-03T11:26:09;4.20;;;2.70;;
54979;SDS011;44101;50.462;30.432;2022-09-03T11:33:52;6.25;;;2.05;;
54979;SDS011;44101;50.462;30.432;2022-09-03T11:36:28;5.70;;;3.78;;
54979;SDS011;44101;50.462;30.432;2022-09-03T11:38:58;10.70;;;6.25;;
54979;SDS011;44101;50.462;30.432;2022-09-03T11:41:28;5.38;;;2.80;;
54979;SDS011;44101;50.462;30.432;2022-09-03T11:44:16;6.05;;;2.50;;
54979;SDS011;44101;50.462;30.432;2022-09-03T11:46:55;13.38;;;2.85;;
54979;SDS011;44101;50.462;30.432;2022-09-03T11:49:26;6.07;;;3.00;;
54979;SDS011;44101;50.462;30.432;2022-09-03T11:54:25;5.72;;;3.13;;
54979;SDS011;44101;50.462;30.432;2022-09-03T11:57:08;4.30;;;2.70;;
54979;SDS011;44101;50.462;30.432;2022-09-03T11:59:43;7.35;;;2.78;;
54979;SDS011;44101;50.462;30.432;2022-09-03T12:02:19;4.50;;;2.50;;
54979;SDS011;44101;50.462;30.432;2022-09-03T12:04:55;6.13;;;2.92;;
54979;SDS011;44101;50.462;30.432;2022-09-03T12:07:50;4.35;;;2.65;;
54979;SDS011;44101;50.462;30.432;2022-09-03T12:19:24;8.75;;;3.10;;
54979;SDS011;44101;50.462;30.432;2022-09-03T12:21:56;7.03;;;3.03;;
54979;SDS011;44101;50.462;30.432;2022-09-03T12:24:21;5.78;;;3.65;;
54979;SDS011;44101;50.462;30.432;2022-09-03T12:26:56;21.25;;;14.65;;
54979;SDS011;44101;50.462;30.432;2022-09-03T12:29:26;4.97;;;3.30;;
54979;SDS011;44101;50.462;30.432;2022-09-03T12:31:54;8.93;;;5.43;;
54979;SDS011;44101;50.462;30.432;2022-09-03T12:34:22;8.93;;;3.40;;
54979;SDS011;44101;50.462;30.432;2022-09-03T12:36:50;6.25;;;3.28;;
54979;SDS011;44101;50.462;30.432;2022-09-03T12:39:28;8.90;;;3.63;;
54979;SDS011;44101;50.462;30.432;2022-09-03T12:42:07;8.20;;;3.60;;
54979;SDS011;44101;50.462;30.432;2022-09-03T12:44:41;7.05;;;3.55;;
54979;SDS011;44101;50.462;30.432;2022-09-03T12:47:13;8.68;;;3.38;;
54979;SDS011;44101;50.462;30.432;2022-09-03T12:49:46;6.88;;;3.45;;
54979;SDS011;44101;50.462;30.432;2022-09-03T12:52:20;10.57;;;3.55;;
54979;SDS011;44101;50.462;30.432;2022-09-03T12:55:01;9.07;;;4.20;;
54979;SDS011;44101;50.462;30.432;2022-09-03T12:57:32;4.72;;;3.40;;
54979;SDS011;44101;50.462;30.432;2022-09-03T13:00:06;8.68;;;3.95;;
54979;SDS011;44101;50.462;30.432;2022-09-03T13:02:36;5.32;;;3.78;;
54979;SDS011;44101;50.462;30.432;2022-09-03T13:05:27;5.72;;;3.28;;
54979;SDS011;44101;50.462;30.432;2022-09-03T13:07:59;9.50;;;4.22;;
54979;SDS011;44101;50.462;30.432;2022-09-03T13:10:32;9.10;;;3.50;;
54979;SDS011;44101;50.462;30.432;2022-09-03T13:13:14;7.35;;;3.15;;
54979;SDS011;44101;50.462;30.432;2022-09-03T13:28:06;7.57;;;4.65;;
54979;SDS011;44101;50.462;30.432;2022-09-03T13:30:37;11.25;;;6.50;;
54979;SDS011;44101;50.462;30.432;2022-09-03T13:46:28;9.55;;;4.70;;
54979;SDS011;44101;50.462;30.432;2022-09-03T13:49:09;7.68;;;4.70;;
54979;SDS011;44101;50.462;30.432;2022-09-03T13:52:10;6.50;;;4.22;;
54979;SDS011;44101;50.462;30.432;2022-09-03T13:54:48;10.10;;;4.53;;
54979;SDS011;44101;50.462;30.432;2022-09-03T14:00:07;6.30;;;4.10;;
54979;SDS011;44101;50.462;30.432;2022-09-03T14:02:49;6.05;;;3.50;;
54979;SDS011;44101;50.462;30.432;2022-09-03T14:13:45;7.85;;;3.72;;
54979;SDS011;44101;50.462;30.432;2022-09-03T14:16:16;12.07;;;3.70;;
54979;SDS011;44101;50.462;30.432;2022-09-03T14:21:24;7.80;;;5.47;;
54979;SDS011;44101;50.462;30.432;2022-09-03T14:26:51;7.38;;;4.90;;
54979;SDS011;44101;50.462;30.432;2022-09-03T14:29:22;10.90;;;5.53;;
54979;SDS011;44101;50.462;30.432;2022-09-03T14:39:44;12.10;;;5.90;;
54979;SDS011;44101;50.462;30.432;2022-09-03T14:45:21;6.47;;;5.00;;
54979;SDS011;44101;50.462;30.432;2022-09-03T14:53:53;7.53;;;5.22;;
54979;SDS011;44101;50.462;30.432;2022-09-03T14:56:48;8.95;;;5.57;;
54979;SDS011;44101;50.462;30.432;2022-09-03T15:08:18;6.82;;;4.78;;
54979;SDS011;44101;50.462;30.432;2022-09-03T15:11:14;10.23;;;5.00;;
54979;SDS011;44101;50.462;30.432;2022-09-03T15:13:51;8.77;;;5.05;;
54979;SDS011;44101;50.462;30.432;2022-09-03T15:27:08;11.43;;;4.35;;
54979;SDS011;44101;50.462;30.432;2022-09-03T15:30:31;7.93;;;4.20;;
54979;SDS011;44101;50.462;30.432;2022-09-03T15:37:54;8.77;;;4.85;;
54979;SDS011;44101;50.462;30.432;2022-09-03T15:40:32;10.02;;;4.90;;
54979;SDS011;44101;50.462;30.432;2022-09-03T15:43:48;7.40;;;5.07;;
54979;SDS011;44101;50.462;30.432;2022-09-03T15:46:20;9.63;;;4.47;;
54979;SDS011;44101;50.462;30.432;2022-09-03T15:48:59;7.45;;;4.85;;
54979;SDS011;44101;50.462;30.432;2022-09-03T15:51:29;9.25;;;4.40;;
54979;SDS011;44101;50.462;30.432;2022-09-03T15:54:09;6.20;;;4.50;;
54979;SDS011;44101;50.462;30.432;2022-09-03T15:56:46;7.45;;;4.20;;
54979;SDS011;44101;50.462;30.432;2022-09-03T15:59:22;7.70;;;4.75;;
54979;SDS011;44101;50.462;30.432;2022-09-03T16:01:56;8.82;;;4.95;;
54979;SDS011;44101;50.462;30.432;2022-09-03T16:04:49;7.60;;;6.45;;
54979;SDS011;44101;50.462;30.432;2022-09-03T16:07:47;10.45;;;5.45;;
54979;SDS011;44101;50.462;30.432;2022-09-03T16:10:17;9.02;;;5.10;;
54979;SDS011;44101;50.462;30.432;2022-09-03T16:15:45;8.95;;;4.57;;
54979;SDS011;44101;50.462;30.432;2022-09-03T16:18:24;7.95;;;4.80;;
54979;SDS011;44101;50.462;30.432;2022-09-03T16:21:00;10.88;;;5.22;;
54979;SDS011;44101;50.462;30.432;2022-09-03T16:26:12;9.70;;;5.50;;
54979;SDS011;44101;50.462;30.432;2022-09-03T16:39:22;7.65;;;5.45;;
54979;SDS011;44101;50.462;30.432;2022-09-03T16:42:26;8.68;;;6.00;;
54979;SDS011;44101;50.462;30.432;2022-09-03T16:45:02;9.95;;;5.35;;
54979;SDS011;44101;50.462;30.432;2022-09-03T16:47:52;11.48;;;5.57;;
54979;SDS011;44101;50.462;30.432;2022-09-03T16:53:24;15.45;;;5.50;;
54979;SDS011;44101;50.462;30.432;2022-09-03T16:58:47;11.50;;;5.13;;
54979;SDS011;44101;50.462;30.432;2022-09-03T17:12:42;9.57;;;5.32;;
54979;SDS011;44101;50.462;30.432;2022-09-03T17:15:51;13.88;;;6.65;;
54979;SDS011;44101;50.462;30.432;2022-09-03T17:18:23;12.40;;;7.50;;
54979;SDS011;44101;50.462;30.432;2022-09-03T17:24:34;8.68;;;5.05;;
54979;SDS011;44101;50.462;30.432;2022-09-03T17:43:30;13.82;;;5.40;;
54979;SDS011;44101;50.462;30.432;2022-09-03T17:48:52;8.63;;;5.80;;
54979;SDS011;44101;50.462;30.432;2022-09-03T17:51:29;10.32;;;5.90;;
54979;SDS011;44101;50.462;30.432;2022-09-03T18:04:52;8.23;;;5.45;;
54979;SDS011;44101;50.462;30.432;2022-09-03T18:07:38;11.35;;;5.70;;
54979;SDS011;44101;50.462;30.432;2022-09-03T18:12:50;7.88;;;5.20;;
54979;SDS011;44101;50.462;30.432;2022-09-03T18:15:35;11.98;;;6.13;;
54979;SDS011;44101;50.462;30.432;2022-09-03T18:18:07;13.80;;;5.70;;
54979;SDS011;44101;50.462;30.432;2022-09-03T18:20:48;13.20;;;5.60;;
54979;SDS011;44101;50.462;30.432;2022-09-03T18:29:15;8.98;;;5.43;;
54979;SDS011;44101;50.462;30.432;2022-09-03T18:32:14;16.63;;;5.88;;
54979;SDS011;44101;50.462;30.432;2022-09-03T18:34:58;10.75;;;5.47;;
54979;SDS011;44101;50.462;30.432;2022-09-03T18:37:43;12.50;;;5.93;;
54979;SDS011;44101;50.462;30.432;2022-09-03T18:40:30;12.25;;;6.55;;
54979;SDS011;44101;50.462;30.432;2022-09-03T18:43:36;12.18;;;6.57;;
54979;SDS011;44101;50.462;30.432;2022-09-03T18:46:26;10.85;;;6.47;;
54979;SDS011;44101;50.462;30.432;2022-09-03T18:59:25;12.23;;;7.22;;
54979;SDS011;44101;50.462;30.432;2022-09-03T19:08:46;22.08;;;9.02;;
54979;SDS011;44101;50.462;30.432;2022-09-03T19:11:54;13.93;;;7.85;;
54979;SDS011;44101;50.462;30.432;2022-09-03T19:15:12;17.00;;;9.30;;
54979;SDS011;44101;50.462;30.432;2022-09-03T19:21:02;16.98;;;9.38;;
54979;SDS011;44101;50.462;30.432;2022-09-03T19:23:47;21.38;;;10.27;;
54979;SDS011;44101;50.462;30.432;2022-09-03T19:26:39;21.33;;;11.07;;
54979;SDS011;44101;50.462;30.432;2022-09-03T19:29:45;18.67;;;11.10;;
54979;SDS011;44101;50.462;30.432;2022-09-03T19:46:21;23.15;;;11.95;;
54979;SDS011;44101;50.462;30.432;2022-09-03T19:52:10;20.02;;;11.25;;
54979;SDS011;44101;50.462;30.432;2022-09-03T19:57:47;23.83;;;11.52;;
54979;SDS011;44101;50.462;30.432;2022-09-03T20:00:43;22.70;;;11.50;;
54979;SDS011;44101;50.462;30.432;2022-09-03T20:03:28;21.45;;;11.70;;
54979;SDS011;44101;50.462;30.432;2022-09-03T20:06:13;27.67;;;12.45;;
54979;SDS011;44101;50.462;30.432;2022-09-03T20:09:00;32.60;;;11.50;;
54979;SDS011;44101;50.462;30.432;2022-09-03T20:11:49;26.52;;;15.15;;
54979;SDS011;44101;50.462;30.432;2022-09-03T20:14:15;23.25;;;13.00;;
54979;SDS011;44101;50.462;30.432;2022-09-03T20:16:54;26.85;;;12.70;;
54979;SDS011;44101;50.462;30.432;2022-09-03T20:19:33;26.27;;;12.73;;
54979;SDS011;44101;50.462;30.432;2022-09-03T20:30:06;23.73;;;11.55;;
54979;SDS011;44101;50.462;30.432;2022-09-03T20:35:36;23.00;;;11.00;;
54979;SDS011;44101;50.462;30.432;2022-09-03T20:38:20;21.13;;;11.63;;
54979;SDS011;44101;50.462;30.432;2022-09-03T20:41:22;22.40;;;12.57;;
54979;SDS011;44101;50.462;30.432;2022-09-03T20:44:01;19.90;;;11.75;;
54979;SDS011;44101;50.462;30.432;2022-09-03T20:49:01;22.83;;;11.65;;
54979;SDS011;44101;50.462;30.432;2022-09-03T20:51:54;22.20;;;11.98;;
54979;SDS011;44101;50.462;30.432;2022-09-03T20:57:35;17.50;;;10.55;;
54979;SDS011;44101;50.462;30.432;2022-09-03T21:00:15;24.20;;;11.55;;
54979;SDS011;44101;50.462;30.432;2022-09-03T21:10:50;22.73;;;11.52;;